Time,TemperatureF,DewpointF,PressureIn,WindDirection,WindDirectionDegrees,WindSpeedMPH,WindSpeedGustMPH,Humidity,HourlyPrecipIn,Conditions,Clouds,dailyrainin,SoftwareType,DateUTC
2013-05-29 00:05:00,59.0,58.0,30.12,SSW,203,0.0,0.0,97,0.00,,,0.00,weatherlink.com 1.10,2013-05-29 04:05:00,
2013-05-29 00:20:00,59.0,58.0,30.12,SSW,203,0.0,0.0,97,0.00,,,0.00,weatherlink.com 1.10,2013-05-29 04:20:00,
2013-05-29 00:35:00,59.1,58.0,30.11,SSW,203,0.0,0.0,97,0.00,,,0.00,weatherlink.com 1.10,2013-05-29 04:35:00,
2013-05-29 00:50:00,59.1,59.0,30.11,SSW,203,0.0,0.0,98,0.00,,,0.00,weatherlink.com 1.10,2013-05-29 04:50:00,
2013-05-29 01:05:00,59.1,59.0,30.11,SSW,203,0.0,0.0,98,0.00,,,0.00,weatherlink.com 1.10,2013-05-29 05:05:00,
2013-05-29 01:20:00,59.3,59.0,30.11,SSW,203,0.0,0.0,98,0.00,,,0.00,weatherlink.com 1.10,2013-05-29 05:20:00,
2013-05-29 01:35:00,59.3,59.0,30.11,SSW,203,0.0,0.0,98,0.00,,,0.00,weatherlink.com 1.10,2013-05-29 05:35:00,
2013-05-29 01:50:00,59.4,59.0,30.10,SSW,203,0.0,0.0,98,0.00,,,0.00,weatherlink.com 1.10,2013-05-29 05:50:00,
2013-05-29 02:05:00,59.4,59.0,30.09,SSW,203,0.0,0.0,98,0.00,,,0.00,weatherlink.com 1.10,2013-05-29 06:05:00,
2013-05-29 02:20:00,59.4,59.0,30.08,SSW,203,0.0,0.0,98,0.00,,,0.00,weatherlink.com 1.10,2013-05-29 06:20:00,
2013-05-29 02:35:00,59.4,59.0,30.08,SSW,203,0.0,0.0,98,0.00,,,0.00,weatherlink.com 1.10,2013-05-29 06:35:00,
2013-05-29 02:50:00,59.5,59.0,30.08,SSW,203,0.0,0.0,98,0.00,,,0.00,weatherlink.com 1.10,2013-05-29 06:50:00,
2013-05-29 03:05:00,59.6,59.0,30.07,SSW,203,0.0,0.0,98,0.00,,,0.00,weatherlink.com 1.10,2013-05-29 07:05:00,
2013-05-29 03:20:00,59.6,59.0,30.07,SSW,203,0.0,0.0,98,0.00,,,0.00,weatherlink.com 1.10,2013-05-29 07:20:00,
2013-05-29 03:35:00,59.6,59.0,30.07,SSW,203,0.0,0.0,98,0.00,,,0.00,weatherlink.com 1.10,2013-05-29 07:35:00,
2013-05-29 03:50:00,59.6,59.0,30.06,SSW,203,0.0,0.0,98,0.00,,,0.00,weatherlink.com 1.10,2013-05-29 07:50:00,
2013-05-29 04:05:00,59.5,59.0,30.07,SSW,203,0.0,0.0,98,0.00,,,0.00,weatherlink.com 1.10,2013-05-29 08:05:00,
2013-05-29 04:20:00,59.6,59.0,30.06,SSW,203,0.0,0.0,98,0.00,,,0.00,weatherlink.com 1.10,2013-05-29 08:20:00,
2013-05-29 04:35:00,59.7,59.0,30.06,SSW,203,0.0,0.0,98,0.00,,,0.00,weatherlink.com 1.10,2013-05-29 08:35:00,
2013-05-29 04:50:00,59.7,59.0,30.07,SSW,203,0.0,0.0,98,0.00,,,0.00,weatherlink.com 1.10,2013-05-29 08:50:00,
2013-05-29 05:05:00,59.7,59.0,30.06,SSW,203,0.0,0.0,98,0.00,,,0.00,weatherlink.com 1.10,2013-05-29 09:05:00,
2013-05-29 05:20:00,59.7,59.0,30.07,SSW,203,0.0,0.0,98,0.00,,,0.00,weatherlink.com 1.10,2013-05-29 09:20:00,
2013-05-29 05:35:00,59.8,59.0,30.07,SSW,203,0.0,0.0,98,0.00,,,0.00,weatherlink.com 1.10,2013-05-29 09:35:00,
2013-05-29 05:50:00,59.8,59.0,30.07,SSW,203,0.0,0.0,98,0.00,,,0.00,weatherlink.com 1.10,2013-05-29 09:50:00,
2013-05-29 06:05:00,59.9,59.0,30.07,SSW,203,0.0,0.0,98,0.00,,,0.00,weatherlink.com 1.10,2013-05-29 10:05:00,
2013-05-29 06:20:00,59.9,59.0,30.07,SSW,203,0.0,0.0,98,0.00,,,0.00,weatherlink.com 1.10,2013-05-29 10:20:00,
2013-05-29 06:35:00,59.9,59.0,30.08,SSW,203,0.0,0.0,98,0.00,,,0.00,weatherlink.com 1.10,2013-05-29 10:35:00,
2013-05-29 06:50:00,60.0,60.0,30.08,SSW,211,0.0,0.0,98,0.00,,,0.00,weatherlink.com 1.10,2013-05-29 10:50:00,
2013-05-29 07:05:00,60.0,60.0,30.08,WSW,254,0.0,0.0,98,0.00,,,0.00,weatherlink.com 1.10,2013-05-29 11:05:00,
2013-05-29 07:20:00,60.2,60.0,30.08,WSW,255,0.0,0.0,98,0.00,,,0.00,weatherlink.com 1.10,2013-05-29 11:20:00,
2013-05-29 07:35:00,60.3,60.0,30.08,WSW,255,0.0,0.0,98,0.00,,,0.00,weatherlink.com 1.10,2013-05-29 11:35:00,
2013-05-29 07:50:00,60.3,60.0,30.08,WSW,255,0.0,0.0,98,0.00,,,0.00,weatherlink.com 1.10,2013-05-29 11:50:00,
2013-05-29 08:05:00,60.6,60.0,30.09,WSW,255,0.0,0.0,98,0.00,,,0.00,weatherlink.com 1.10,2013-05-29 12:05:00,
2013-05-29 08:20:00,61.1,61.0,30.08,WSW,252,0.0,0.0,98,0.00,,,0.00,weatherlink.com 1.10,2013-05-29 12:20:00,
2013-05-29 08:35:00,61.5,61.0,30.08,SSW,200,0.0,0.0,98,0.00,,,0.00,weatherlink.com 1.10,2013-05-29 12:35:00,
2013-05-29 08:50:00,62.2,62.0,30.09,SE,135,0.0,0.0,98,0.00,,,0.00,weatherlink.com 1.10,2013-05-29 12:50:00,
2013-05-29 09:05:00,62.9,62.0,30.09,SSE,159,0.0,0.0,98,0.00,,,0.00,weatherlink.com 1.10,2013-05-29 13:05:00,
2013-05-29 09:20:00,63.5,63.0,30.09,SSE,159,0.0,0.0,98,0.00,,,0.00,weatherlink.com 1.10,2013-05-29 13:20:00,
2013-05-29 09:35:00,64.6,64.0,30.09,SE,129,0.0,0.0,97,0.00,,,0.00,weatherlink.com 1.10,2013-05-29 13:35:00,
2013-05-29 09:50:00,65.5,65.0,30.09,East,91,0.0,0.0,97,0.00,,,0.00,weatherlink.com 1.10,2013-05-29 13:50:00,
2013-05-29 10:05:00,66.1,64.0,30.08,SSE,162,0.0,2.0,94,0.00,,,0.00,weatherlink.com 1.10,2013-05-29 14:05:00,
2013-05-29 10:20:00,67.8,65.0,30.08,NE,36,2.0,3.0,91,0.00,,,0.00,weatherlink.com 1.10,2013-05-29 14:20:00,
2013-05-29 10:36:00,69.6,66.0,30.08,South,171,0.0,2.0,88,0.00,,,0.00,weatherlink.com 1.10,2013-05-29 14:36:00,
2013-05-29 10:51:00,69.9,65.0,30.08,SSE,149,0.0,2.0,85,0.00,,,0.00,weatherlink.com 1.10,2013-05-29 14:51:00,
2013-05-29 11:06:00,71.4,67.0,30.08,SSE,155,2.0,3.0,85,0.00,,,0.00,weatherlink.com 1.10,2013-05-29 15:06:00,
2013-05-29 11:21:00,71.9,66.0,30.07,SSE,156,2.0,4.0,82,0.00,,,0.00,weatherlink.com 1.10,2013-05-29 15:21:00,
2013-05-29 11:36:00,72.6,67.0,30.07,SE,143,2.0,5.0,81,0.00,,,0.00,weatherlink.com 1.10,2013-05-29 15:36:00,
2013-05-29 11:51:00,73.2,67.0,30.07,East,96,1.0,4.0,81,0.00,,,0.00,weatherlink.com 1.10,2013-05-29 15:51:00,
2013-05-29 12:06:00,73.9,68.0,30.07,South,172,1.0,4.0,81,0.00,,,0.00,weatherlink.com 1.10,2013-05-29 16:06:00,
2013-05-29 12:21:00,74.2,67.0,30.07,SSE,152,1.0,5.0,79,0.00,,,0.00,weatherlink.com 1.10,2013-05-29 16:21:00,
2013-05-29 12:36:00,74.9,68.0,30.07,South,183,1.0,2.0,78,0.00,,,0.00,weatherlink.com 1.10,2013-05-29 16:36:00,
2013-05-29 12:51:00,75.6,68.0,30.06,South,170,1.0,3.0,77,0.00,,,0.00,weatherlink.com 1.10,2013-05-29 16:51:00,
2013-05-29 13:06:00,76.9,68.0,30.07,SE,132,2.0,4.0,74,0.00,,,0.00,weatherlink.com 1.10,2013-05-29 17:06:00,
2013-05-29 13:21:00,78.4,69.0,30.06,NNW,329,1.0,4.0,72,0.00,,,0.00,weatherlink.com 1.10,2013-05-29 17:21:00,
2013-05-29 13:36:00,78.6,68.0,30.05,SW,216,2.0,5.0,69,0.00,,,0.00,weatherlink.com 1.10,2013-05-29 17:36:00,
2013-05-29 13:51:00,79.6,68.0,30.05,SSE,163,0.0,5.0,68,0.00,,,0.00,weatherlink.com 1.10,2013-05-29 17:51:00,
2013-05-29 14:06:00,80.8,68.0,30.05,SSE,149,1.0,7.0,65,0.00,,,0.00,weatherlink.com 1.10,2013-05-29 18:06:00,
2013-05-29 14:21:00,82.3,69.0,30.04,South,172,1.0,5.0,64,0.00,,,0.00,weatherlink.com 1.10,2013-05-29 18:21:00,
2013-05-29 14:36:00,83.9,68.0,30.04,SSE,155,1.0,4.0,60,0.00,,,0.00,weatherlink.com 1.10,2013-05-29 18:36:00,
2013-05-29 14:51:00,84.5,69.0,30.04,ENE,64,4.0,7.0,59,0.00,,,0.00,weatherlink.com 1.10,2013-05-29 18:51:00,
2013-05-29 15:06:00,85.7,69.0,30.03,SE,146,1.0,4.0,58,0.00,,,0.00,weatherlink.com 1.10,2013-05-29 19:06:00,
2013-05-29 15:21:00,86.0,69.0,30.03,SSE,148,2.0,9.0,57,0.00,,,0.00,weatherlink.com 1.10,2013-05-29 19:21:00,
2013-05-29 15:37:00,87.1,69.0,30.03,SSE,152,1.0,6.0,55,0.00,,,0.00,weatherlink.com 1.10,2013-05-29 19:37:00,
2013-05-29 15:52:00,87.7,69.0,30.02,South,184,0.0,7.0,54,0.00,,,0.00,weatherlink.com 1.10,2013-05-29 19:52:00,
2013-05-29 16:07:00,87.9,70.0,30.02,South,178,1.0,8.0,55,0.00,,,0.00,weatherlink.com 1.10,2013-05-29 20:07:00,
2013-05-29 16:22:00,87.9,69.0,30.01,ESE,121,2.0,8.0,53,0.00,,,0.00,weatherlink.com 1.10,2013-05-29 20:22:00,
2013-05-29 16:37:00,87.8,69.0,30.01,SSE,159,3.0,6.0,54,0.00,,,0.00,weatherlink.com 1.10,2013-05-29 20:37:00,
2013-05-29 16:52:00,88.7,68.0,30.00,SE,146,4.0,6.0,51,0.00,,,0.00,weatherlink.com 1.10,2013-05-29 20:52:00,
2013-05-29 17:07:00,88.6,68.0,30.00,South,177,4.0,6.0,50,0.00,,,0.00,weatherlink.com 1.10,2013-05-29 21:07:00,
2013-05-29 17:22:00,88.2,68.0,29.99,SSW,202,2.0,3.0,52,0.00,,,0.00,weatherlink.com 1.10,2013-05-29 21:22:00,
2013-05-29 17:37:00,87.7,67.0,30.00,SSW,197,1.0,4.0,51,0.00,,,0.00,weatherlink.com 1.10,2013-05-29 21:37:00,
2013-05-29 17:52:00,87.7,67.0,30.00,SSE,150,1.0,6.0,51,0.00,,,0.00,weatherlink.com 1.10,2013-05-29 21:52:00,
2013-05-29 18:07:00,88.3,67.0,29.99,SSE,165,2.0,6.0,49,0.00,,,0.00,weatherlink.com 1.10,2013-05-29 22:07:00,
2013-05-29 18:23:00,87.5,66.0,29.99,SE,139,1.0,8.0,49,0.00,,,0.00,weatherlink.com 1.10,2013-05-29 22:23:00,
2013-05-29 18:38:00,87.6,67.0,29.99,South,174,1.0,4.0,50,0.00,,,0.00,weatherlink.com 1.10,2013-05-29 22:38:00,
2013-05-29 18:53:00,87.2,66.0,29.98,SSE,149,2.0,7.0,50,0.00,,,0.00,weatherlink.com 1.10,2013-05-29 22:53:00,
2013-05-29 19:08:00,87.0,66.0,29.98,South,172,1.0,5.0,50,0.00,,,0.00,weatherlink.com 1.10,2013-05-29 23:08:00,
2013-05-29 19:23:00,86.7,66.0,29.98,South,191,0.0,5.0,50,0.00,,,0.00,weatherlink.com 1.10,2013-05-29 23:23:00,
2013-05-29 19:38:00,86.3,66.0,29.98,South,180,4.0,5.0,50,0.00,,,0.00,weatherlink.com 1.10,2013-05-29 23:38:00,
2013-05-29 19:53:00,86.0,65.0,29.98,SE,146,1.0,7.0,50,0.00,,,0.00,weatherlink.com 1.10,2013-05-29 23:53:00,
2013-05-29 20:08:00,85.5,65.0,29.99,ESE,120,1.0,5.0,51,0.00,,,0.00,weatherlink.com 1.10,2013-05-30 00:08:00,
2013-05-29 20:23:00,84.8,65.0,29.99,South,184,0.0,3.0,52,0.00,,,0.00,weatherlink.com 1.10,2013-05-30 00:23:00,
2013-05-29 20:38:00,84.1,65.0,29.99,SE,135,2.0,2.0,53,0.00,,,0.00,weatherlink.com 1.10,2013-05-30 00:38:00,
2013-05-29 20:53:00,83.7,65.0,29.99,South,178,0.0,5.0,54,0.00,,,0.00,weatherlink.com 1.10,2013-05-30 00:53:00,
2013-05-29 21:08:00,83.5,66.0,30.00,SSE,166,1.0,5.0,55,0.00,,,0.00,weatherlink.com 1.10,2013-05-30 01:08:00,
2013-05-29 21:23:00,83.1,66.0,30.00,SE,129,1.0,2.0,56,0.00,,,0.00,weatherlink.com 1.10,2013-05-30 01:23:00,
2013-05-29 21:38:00,82.7,66.0,30.00,South,170,1.0,3.0,57,0.00,,,0.00,weatherlink.com 1.10,2013-05-30 01:38:00,
2013-05-29 21:53:00,82.4,66.0,30.01,South,173,1.0,4.0,58,0.00,,,0.00,weatherlink.com 1.10,2013-05-30 01:53:00,
2013-05-29 22:08:00,81.9,66.0,30.02,South,174,2.0,4.0,59,0.00,,,0.00,weatherlink.com 1.10,2013-05-30 02:08:00,
2013-05-29 22:23:00,81.2,66.0,30.02,SSE,162,0.0,2.0,61,0.00,,,0.00,weatherlink.com 1.10,2013-05-30 02:23:00,
2013-05-29 22:38:00,80.7,66.0,30.03,South,174,0.0,2.0,62,0.00,,,0.00,weatherlink.com 1.10,2013-05-30 02:38:00,
2013-05-29 22:53:00,80.4,67.0,30.04,South,179,0.0,3.0,63,0.00,,,0.00,weatherlink.com 1.10,2013-05-30 02:53:00,
2013-05-29 23:08:00,80.2,66.0,30.04,South,188,2.0,3.0,63,0.00,,,0.00,weatherlink.com 1.10,2013-05-30 03:08:00,
2013-05-29 23:23:00,79.9,67.0,30.05,SSE,165,1.0,4.0,64,0.00,,,0.00,weatherlink.com 1.10,2013-05-30 03:23:00,
2013-05-29 23:38:00,79.6,67.0,30.05,East,94,2.0,3.0,65,0.00,,,0.00,weatherlink.com 1.10,2013-05-30 03:38:00,
2013-05-29 23:53:00,79.3,67.0,30.05,SSE,159,0.0,2.0,66,0.00,,,0.00,weatherlink.com 1.10,2013-05-30 03:53:00,